sensor_id;sensor_type;location;lat;lon;timestamp;P1;durP1;ratioP1;P2;durP2;ratioP2
5876;SDS011;2964;42.144;24.730;2024-01-30T00:00:24;10.17;;;8.03;;
5876;SDS011;2964;42.144;24.730;2024-01-30T00:02:50;7.97;;;7.20;;
5876;SDS011;2964;42.144;24.730;2024-01-30T00:05:19;8.57;;;7.77;;
5876;SDS011;2964;42.144;24.730;2024-01-30T00:07:45;12.87;;;7.83;;
5876;SDS011;2964;42.144;24.730;2024-01-30T00:10:12;13.43;;;7.93;;
5876;SDS011;2964;42.144;24.730;2024-01-30T00:12:39;8.50;;;6.77;;
5876;SDS011;2964;42.144;24.730;2024-01-30T00:15:06;8.00;;;7.20;;
5876;SDS011;2964;42.144;24.730;2024-01-30T00:17:34;10.20;;;7.30;;
5876;SDS011;2964;42.144;24.730;2024-01-30T00:20:02;7.47;;;6.77;;
5876;SDS011;2964;42.144;24.730;2024-01-30T00:22:33;7.30;;;6.53;;
5876;SDS011;2964;42.144;24.730;2024-01-30T00:25:00;7.47;;;6.77;;
5876;SDS011;2964;42.144;24.730;2024-01-30T00:27:27;12.17;;;7.53;;
5876;SDS011;2964;42.144;24.730;2024-01-30T00:29:53;9.20;;;7.23;;
5876;SDS011;2964;42.144;24.730;2024-01-30T00:32:20;7.43;;;6.57;;
5876;SDS011;2964;42.144;24.730;2024-01-30T00:34:48;8.10;;;7.37;;
5876;SDS011;2964;42.144;24.730;2024-01-30T00:37:15;8.33;;;7.53;;
5876;SDS011;2964;42.144;24.730;2024-01-30T00:39:43;10.60;;;7.50;;
5876;SDS011;2964;42.144;24.730;2024-01-30T00:42:09;10.10;;;7.70;;
5876;SDS011;2964;42.144;24.730;2024-01-30T00:44:36;9.03;;;7.77;;
5876;SDS011;2964;42.144;24.730;2024-01-30T00:47:03;7.67;;;6.90;;
5876;SDS011;2964;42.144;24.730;2024-01-30T00:49:30;8.03;;;7.23;;
5876;SDS011;2964;42.144;24.730;2024-01-30T00:51:57;8.40;;;7.60;;
5876;SDS011;2964;42.144;24.730;2024-01-30T00:54:24;8.50;;;6.67;;
5876;SDS011;2964;42.144;24.730;2024-01-30T00:56:52;7.30;;;6.70;;
5876;SDS011;2964;42.144;24.730;2024-01-30T00:59:18;9.07;;;7.77;;
5876;SDS011;2964;42.144;24.730;2024-01-30T01:01:45;8.33;;;7.47;;
5876;SDS011;2964;42.144;24.730;2024-01-30T01:04:12;7.57;;;6.80;;
5876;SDS011;2964;42.144;24.730;2024-01-30T01:06:39;13.47;;;7.83;;
5876;SDS011;2964;42.144;24.730;2024-01-30T01:09:07;9.13;;;6.90;;
5876;SDS011;2964;42.144;24.730;2024-01-30T01:11:34;10.23;;;6.87;;
5876;SDS011;2964;42.144;24.730;2024-01-30T01:14:02;6.80;;;6.20;;
5876;SDS011;2964;42.144;24.730;2024-01-30T01:16:29;9.23;;;7.37;;
5876;SDS011;2964;42.144;24.730;2024-01-30T01:18:55;13.10;;;8.03;;
5876;SDS011;2964;42.144;24.730;2024-01-30T01:21:22;9.30;;;7.37;;
5876;SDS011;2964;42.144;24.730;2024-01-30T01:23:49;10.97;;;7.90;;
5876;SDS011;2964;42.144;24.730;2024-01-30T01:26:15;10.93;;;7.33;;
5876;SDS011;2964;42.144;24.730;2024-01-30T01:28:42;15.73;;;7.67;;
5876;SDS011;2964;42.144;24.730;2024-01-30T01:31:10;15.47;;;8.17;;
5876;SDS011;2964;42.144;24.730;2024-01-30T01:33:37;26.43;;;8.20;;
5876;SDS011;2964;42.144;24.730;2024-01-30T01:36:04;17.33;;;8.53;;
5876;SDS011;2964;42.144;24.730;2024-01-30T01:38:31;10.40;;;7.67;;
5876;SDS011;2964;42.144;24.730;2024-01-30T01:40:58;10.37;;;7.93;;
5876;SDS011;2964;42.144;24.730;2024-01-30T01:43:25;9.87;;;6.90;;
5876;SDS011;2964;42.144;24.730;2024-01-30T01:45:51;8.40;;;6.53;;
5876;SDS011;2964;42.144;24.730;2024-01-30T01:48:19;7.93;;;7.13;;
5876;SDS011;2964;42.144;24.730;2024-01-30T01:50:46;6.50;;;5.90;;
5876;SDS011;2964;42.144;24.730;2024-01-30T01:53:13;7.13;;;6.43;;
5876;SDS011;2964;42.144;24.730;2024-01-30T01:55:41;6.77;;;6.20;;
5876;SDS011;2964;42.144;24.730;2024-01-30T01:58:08;7.33;;;6.63;;
5876;SDS011;2964;42.144;24.730;2024-01-30T02:00:37;7.73;;;7.03;;
5876;SDS011;2964;42.144;24.730;2024-01-30T02:03:06;8.03;;;7.33;;
5876;SDS011;2964;42.144;24.730;2024-01-30T02:05:35;9.80;;;7.77;;
5876;SDS011;2964;42.144;24.730;2024-01-30T02:08:03;9.80;;;8.77;;
5876;SDS011;2964;42.144;24.730;2024-01-30T02:10:31;8.57;;;7.67;;
5876;SDS011;2964;42.144;24.730;2024-01-30T02:12:58;10.47;;;7.63;;
5876;SDS011;2964;42.144;24.730;2024-01-30T02:15:25;8.90;;;7.40;;
5876;SDS011;2964;42.144;24.730;2024-01-30T02:17:51;9.47;;;8.53;;
5876;SDS011;2964;42.144;24.730;2024-01-30T02:20:18;10.40;;;7.93;;
5876;SDS011;2964;42.144;24.730;2024-01-30T02:22:46;7.60;;;6.90;;
5876;SDS011;2964;42.144;24.730;2024-01-30T02:25:14;9.17;;;8.27;;
5876;SDS011;2964;42.144;24.730;2024-01-30T02:27:41;8.30;;;7.47;;
5876;SDS011;2964;42.144;24.730;2024-01-30T02:30:08;8.43;;;7.57;;
5876;SDS011;2964;42.144;24.730;2024-01-30T02:32:35;7.90;;;7.20;;
5876;SDS011;2964;42.144;24.730;2024-01-30T02:35:02;9.07;;;7.90;;
5876;SDS011;2964;42.144;24.730;2024-01-30T02:37:29;12.83;;;7.80;;
5876;SDS011;2964;42.144;24.730;2024-01-30T02:39:57;8.43;;;7.73;;
5876;SDS011;2964;42.144;24.730;2024-01-30T02:42:24;10.67;;;9.50;;
5876;SDS011;2964;42.144;24.730;2024-01-30T02:44:51;9.63;;;8.73;;
5876;SDS011;2964;42.144;24.730;2024-01-30T02:47:17;12.13;;;9.40;;
5876;SDS011;2964;42.144;24.730;2024-01-30T02:49:44;9.60;;;8.60;;
5876;SDS011;2964;42.144;24.730;2024-01-30T02:52:11;15.97;;;9.60;;
5876;SDS011;2964;42.144;24.730;2024-01-30T02:54:38;11.93;;;8.43;;
5876;SDS011;2964;42.144;24.730;2024-01-30T02:57:06;15.83;;;10.00;;
5876;SDS011;2964;42.144;24.730;2024-01-30T02:59:33;10.23;;;8.40;;
5876;SDS011;2964;42.144;24.730;2024-01-30T03:02:01;10.20;;;9.00;;
5876;SDS011;2964;42.144;24.730;2024-01-30T03:04:27;12.40;;;9.73;;
5876;SDS011;2964;42.144;24.730;2024-01-30T03:06:55;13.57;;;9.33;;
5876;SDS011;2964;42.144;24.730;2024-01-30T03:09:21;12.37;;;9.20;;
5876;SDS011;2964;42.144;24.730;2024-01-30T03:11:48;11.83;;;9.13;;
5876;SDS011;2964;42.144;24.730;2024-01-30T03:14:16;11.00;;;9.53;;
5876;SDS011;2964;42.144;24.730;2024-01-30T03:16:43;11.87;;;9.30;;
5876;SDS011;2964;42.144;24.730;2024-01-30T03:19:09;10.53;;;9.53;;
5876;SDS011;2964;42.144;24.730;2024-01-30T03:21:36;13.97;;;10.63;;
5876;SDS011;2964;42.144;24.730;2024-01-30T03:24:03;14.57;;;9.83;;
5876;SDS011;2964;42.144;24.730;2024-01-30T03:26:30;11.40;;;9.13;;
5876;SDS011;2964;42.144;24.730;2024-01-30T03:28:57;12.13;;;8.80;;
5876;SDS011;2964;42.144;24.730;2024-01-30T03:31:25;13.73;;;9.63;;
5876;SDS011;2964;42.144;24.730;2024-01-30T03:33:52;16.60;;;9.50;;
5876;SDS011;2964;42.144;24.730;2024-01-30T03:36:18;10.93;;;9.20;;
5876;SDS011;2964;42.144;24.730;2024-01-30T03:38:46;20.37;;;10.73;;
5876;SDS011;2964;42.144;24.730;2024-01-30T03:41:12;19.47;;;9.97;;
5876;SDS011;2964;42.144;24.730;2024-01-30T03:43:39;13.33;;;9.30;;
5876;SDS011;2964;42.144;24.730;2024-01-30T03:46:07;14.03;;;9.23;;
5876;SDS011;2964;42.144;24.730;2024-01-30T03:48:35;12.07;;;9.40;;
5876;SDS011;2964;42.144;24.730;2024-01-30T03:51:02;10.80;;;9.00;;
5876;SDS011;2964;42.144;24.730;2024-01-30T03:53:28;14.67;;;8.57;;
5876;SDS011;2964;42.144;24.730;2024-01-30T03:55:55;11.83;;;8.87;;
5876;SDS011;2964;42.144;24.730;2024-01-30T03:58:22;12.60;;;9.13;;
5876;SDS011;2964;42.144;24.730;2024-01-30T04:00:49;9.87;;;8.80;;
5876;SDS011;2964;42.144;24.730;2024-01-30T04:03:15;10.23;;;8.80;;
5876;SDS011;2964;42.144;24.730;2024-01-30T04:05:45;15.37;;;9.93;;
5876;SDS011;2964;42.144;24.730;2024-01-30T04:08:11;32.73;;;9.87;;
5876;SDS011;2964;42.144;24.730;2024-01-30T04:10:38;10.93;;;8.77;;
5876;SDS011;2964;42.144;24.730;2024-01-30T04:13:05;9.43;;;8.40;;
5876;SDS011;2964;42.144;24.730;2024-01-30T04:15:32;11.87;;;8.40;;
5876;SDS011;2964;42.144;24.730;2024-01-30T04:17:58;9.00;;;7.73;;
5876;SDS011;2964;42.144;24.730;2024-01-30T04:20:25;15.90;;;9.77;;
5876;SDS011;2964;42.144;24.730;2024-01-30T04:22:53;11.00;;;8.93;;
5876;SDS011;2964;42.144;24.730;2024-01-30T04:25:20;13.27;;;9.87;;
5876;SDS011;2964;42.144;24.730;2024-01-30T04:27:46;12.07;;;9.00;;
5876;SDS011;2964;42.144;24.730;2024-01-30T04:30:13;15.47;;;9.67;;
5876;SDS011;2964;42.144;24.730;2024-01-30T04:32:40;14.03;;;9.00;;
5876;SDS011;2964;42.144;24.730;2024-01-30T04:35:07;13.63;;;9.50;;
5876;SDS011;2964;42.144;24.730;2024-01-30T04:37:34;13.60;;;9.00;;
5876;SDS011;2964;42.144;24.730;2024-01-30T04:40:02;18.30;;;9.57;;
5876;SDS011;2964;42.144;24.730;2024-01-30T04:42:30;17.47;;;9.67;;
5876;SDS011;2964;42.144;24.730;2024-01-30T04:44:56;14.17;;;9.80;;
5876;SDS011;2964;42.144;24.730;2024-01-30T04:47:23;10.70;;;9.53;;
5876;SDS011;2964;42.144;24.730;2024-01-30T04:49:51;13.53;;;9.37;;
5876;SDS011;2964;42.144;24.730;2024-01-30T04:52:17;15.00;;;9.97;;
5876;SDS011;2964;42.144;24.730;2024-01-30T04:54:44;14.43;;;9.53;;
5876;SDS011;2964;42.144;24.730;2024-01-30T04:57:12;16.30;;;9.67;;
5876;SDS011;2964;42.144;24.730;2024-01-30T04:59:39;16.70;;;10.00;;
5876;SDS011;2964;42.144;24.730;2024-01-30T05:02:06;13.17;;;10.07;;
5876;SDS011;2964;42.144;24.730;2024-01-30T05:04:33;12.83;;;9.70;;
5876;SDS011;2964;42.144;24.730;2024-01-30T05:07:00;14.00;;;9.90;;
5876;SDS011;2964;42.144;24.730;2024-01-30T05:09:32;14.23;;;10.23;;
5876;SDS011;2964;42.144;24.730;2024-01-30T05:11:59;13.00;;;10.53;;
5876;SDS011;2964;42.144;24.730;2024-01-30T05:14:27;14.87;;;10.30;;
5876;SDS011;2964;42.144;24.730;2024-01-30T05:16:53;11.60;;;10.20;;
5876;SDS011;2964;42.144;24.730;2024-01-30T05:19:20;12.90;;;10.03;;
5876;SDS011;2964;42.144;24.730;2024-01-30T05:21:48;20.57;;;11.03;;
5876;SDS011;2964;42.144;24.730;2024-01-30T05:24:15;12.93;;;11.13;;
5876;SDS011;2964;42.144;24.730;2024-01-30T05:26:42;20.53;;;11.80;;
5876;SDS011;2964;42.144;24.730;2024-01-30T05:29:09;17.00;;;11.13;;
5876;SDS011;2964;42.144;24.730;2024-01-30T05:31:38;14.83;;;10.43;;
5876;SDS011;2964;42.144;24.730;2024-01-30T05:34:07;17.63;;;11.80;;
5876;SDS011;2964;42.144;24.730;2024-01-30T05:36:34;16.03;;;11.37;;
5876;SDS011;2964;42.144;24.730;2024-01-30T05:39:01;26.00;;;11.60;;
5876;SDS011;2964;42.144;24.730;2024-01-30T05:41:28;13.83;;;11.07;;
5876;SDS011;2964;42.144;24.730;2024-01-30T05:43:55;19.00;;;12.43;;
5876;SDS011;2964;42.144;24.730;2024-01-30T05:46:22;14.83;;;10.73;;
5876;SDS011;2964;42.144;24.730;2024-01-30T05:48:50;16.80;;;12.07;;
5876;SDS011;2964;42.144;24.730;2024-01-30T05:51:16;12.10;;;10.80;;
5876;SDS011;2964;42.144;24.730;2024-01-30T05:53:43;13.43;;;10.37;;
5876;SDS011;2964;42.144;24.730;2024-01-30T05:56:10;16.40;;;11.87;;
5876;SDS011;2964;42.144;24.730;2024-01-30T05:58:36;16.07;;;12.07;;
5876;SDS011;2964;42.144;24.730;2024-01-30T06:01:04;22.27;;;14.40;;
5876;SDS011;2964;42.144;24.730;2024-01-30T06:03:33;20.30;;;14.73;;
5876;SDS011;2964;42.144;24.730;2024-01-30T06:06:02;15.60;;;11.53;;
5876;SDS011;2964;42.144;24.730;2024-01-30T06:08:27;17.40;;;11.13;;
5876;SDS011;2964;42.144;24.730;2024-01-30T06:10:54;22.60;;;12.37;;
5876;SDS011;2964;42.144;24.730;2024-01-30T06:13:21;25.57;;;15.00;;
5876;SDS011;2964;42.144;24.730;2024-01-30T06:15:47;21.90;;;14.07;;
5876;SDS011;2964;42.144;24.730;2024-01-30T06:18:14;32.40;;;12.33;;
5876;SDS011;2964;42.144;24.730;2024-01-30T06:20:41;20.60;;;13.40;;
5876;SDS011;2964;42.144;24.730;2024-01-30T06:23:09;41.60;;;21.40;;
5876;SDS011;2964;42.144;24.730;2024-01-30T06:25:38;19.37;;;13.30;;
5876;SDS011;2964;42.144;24.730;2024-01-30T06:28:04;16.87;;;12.07;;
5876;SDS011;2964;42.144;24.730;2024-01-30T06:30:31;16.00;;;11.97;;
5876;SDS011;2964;42.144;24.730;2024-01-30T06:32:58;19.20;;;11.53;;
5876;SDS011;2964;42.144;24.730;2024-01-30T06:35:25;23.00;;;12.47;;
5876;SDS011;2964;42.144;24.730;2024-01-30T06:37:53;20.60;;;11.57;;
5876;SDS011;2964;42.144;24.730;2024-01-30T06:40:22;17.87;;;12.03;;
5876;SDS011;2964;42.144;24.730;2024-01-30T06:42:48;13.13;;;11.33;;
5876;SDS011;2964;42.144;24.730;2024-01-30T06:45:15;15.13;;;10.73;;
5876;SDS011;2964;42.144;24.730;2024-01-30T06:47:42;18.70;;;10.93;;
5876;SDS011;2964;42.144;24.730;2024-01-30T06:50:09;16.70;;;11.40;;
5876;SDS011;2964;42.144;24.730;2024-01-30T06:52:35;14.17;;;10.10;;
5876;SDS011;2964;42.144;24.730;2024-01-30T06:55:02;13.63;;;10.67;;
5876;SDS011;2964;42.144;24.730;2024-01-30T06:57:31;15.77;;;11.00;;
5876;SDS011;2964;42.144;24.730;2024-01-30T06:59:57;17.57;;;11.87;;
5876;SDS011;2964;42.144;24.730;2024-01-30T07:02:24;25.90;;;11.53;;
5876;SDS011;2964;42.144;24.730;2024-01-30T07:04:50;17.10;;;11.10;;
5876;SDS011;2964;42.144;24.730;2024-01-30T07:07:16;18.10;;;11.13;;
5876;SDS011;2964;42.144;24.730;2024-01-30T07:09:49;17.27;;;11.13;;
5876;SDS011;2964;42.144;24.730;2024-01-30T07:12:21;19.97;;;10.77;;
5876;SDS011;2964;42.144;24.730;2024-01-30T07:14:51;12.57;;;9.13;;
5876;SDS011;2964;42.144;24.730;2024-01-30T07:17:18;23.70;;;11.13;;
5876;SDS011;2964;42.144;24.730;2024-01-30T07:19:45;19.93;;;10.13;;
5876;SDS011;2964;42.144;24.730;2024-01-30T07:22:12;13.97;;;9.90;;
5876;SDS011;2964;42.144;24.730;2024-01-30T07:24:42;11.70;;;9.23;;
5876;SDS011;2964;42.144;24.730;2024-01-30T07:27:13;14.07;;;9.60;;
5876;SDS011;2964;42.144;24.730;2024-01-30T07:29:40;12.20;;;9.00;;
5876;SDS011;2964;42.144;24.730;2024-01-30T07:32:10;12.03;;;9.63;;
5876;SDS011;2964;42.144;24.730;2024-01-30T07:34:38;17.50;;;10.23;;
5876;SDS011;2964;42.144;24.730;2024-01-30T07:37:05;17.47;;;9.43;;
5876;SDS011;2964;42.144;24.730;2024-01-30T07:39:33;12.57;;;9.27;;
5876;SDS011;2964;42.144;24.730;2024-01-30T07:42:00;17.23;;;9.77;;
5876;SDS011;2964;42.144;24.730;2024-01-30T07:44:27;14.13;;;10.27;;
5876;SDS011;2964;42.144;24.730;2024-01-30T07:46:54;15.50;;;10.33;;
5876;SDS011;2964;42.144;24.730;2024-01-30T07:49:23;13.70;;;10.60;;
5876;SDS011;2964;42.144;24.730;2024-01-30T07:51:52;14.70;;;10.20;;
5876;SDS011;2964;42.144;24.730;2024-01-30T07:54:19;13.80;;;10.77;;
5876;SDS011;2964;42.144;24.730;2024-01-30T07:56:50;19.33;;;10.30;;
5876;SDS011;2964;42.144;24.730;2024-01-30T07:59:17;12.10;;;9.90;;
5876;SDS011;2964;42.144;24.730;2024-01-30T08:01:46;15.27;;;9.57;;
5876;SDS011;2964;42.144;24.730;2024-01-30T08:04:13;12.20;;;9.10;;
5876;SDS011;2964;42.144;24.730;2024-01-30T08:06:41;10.67;;;8.83;;
5876;SDS011;2964;42.144;24.730;2024-01-30T08:09:08;14.23;;;9.03;;
5876;SDS011;2964;42.144;24.730;2024-01-30T08:11:35;9.77;;;8.63;;
5876;SDS011;2964;42.144;24.730;2024-01-30T08:14:02;14.37;;;9.17;;
5876;SDS011;2964;42.144;24.730;2024-01-30T08:16:29;12.27;;;9.27;;
5876;SDS011;2964;42.144;24.730;2024-01-30T08:18:55;8.40;;;7.70;;
5876;SDS011;2964;42.144;24.730;2024-01-30T08:21:22;9.60;;;7.57;;
5876;SDS011;2964;42.144;24.730;2024-01-30T08:23:50;11.10;;;8.17;;
5876;SDS011;2964;42.144;24.730;2024-01-30T08:26:17;7.57;;;6.73;;
5876;SDS011;2964;42.144;24.730;2024-01-30T08:28:44;10.77;;;7.03;;
5876;SDS011;2964;42.144;24.730;2024-01-30T08:31:10;7.73;;;7.13;;
5876;SDS011;2964;42.144;24.730;2024-01-30T08:33:37;7.67;;;6.53;;
5876;SDS011;2964;42.144;24.730;2024-01-30T08:36:04;7.70;;;6.87;;
5876;SDS011;2964;42.144;24.730;2024-01-30T08:38:30;7.30;;;6.70;;
5876;SDS011;2964;42.144;24.730;2024-01-30T08:40:58;8.07;;;6.07;;
5876;SDS011;2964;42.144;24.730;2024-01-30T08:43:28;9.07;;;5.40;;
5876;SDS011;2964;42.144;24.730;2024-01-30T08:45:55;7.07;;;6.47;;
5876;SDS011;2964;42.144;24.730;2024-01-30T08:48:24;7.67;;;6.87;;
5876;SDS011;2964;42.144;24.730;2024-01-30T08:50:53;6.57;;;6.10;;
5876;SDS011;2964;42.144;24.730;2024-01-30T08:53:20;6.63;;;6.10;;
5876;SDS011;2964;42.144;24.730;2024-01-30T08:55:47;7.20;;;6.37;;
5876;SDS011;2964;42.144;24.730;2024-01-30T08:58:15;7.20;;;6.53;;
5876;SDS011;2964;42.144;24.730;2024-01-30T09:00:43;9.83;;;6.47;;
5876;SDS011;2964;42.144;24.730;2024-01-30T09:03:10;8.40;;;7.57;;
5876;SDS011;2964;42.144;24.730;2024-01-30T09:05:36;6.97;;;6.27;;
5876;SDS011;2964;42.144;24.730;2024-01-30T09:08:06;14.00;;;6.87;;
5876;SDS011;2964;42.144;24.730;2024-01-30T09:10:33;10.80;;;7.30;;
5876;SDS011;2964;42.144;24.730;2024-01-30T09:12:59;7.20;;;6.60;;
5876;SDS011;2964;42.144;24.730;2024-01-30T09:15:27;7.07;;;6.30;;
5876;SDS011;2964;42.144;24.730;2024-01-30T09:17:53;7.97;;;6.90;;
5876;SDS011;2964;42.144;24.730;2024-01-30T09:20:20;6.93;;;6.30;;
5876;SDS011;2964;42.144;24.730;2024-01-30T09:22:48;7.30;;;6.40;;
5876;SDS011;2964;42.144;24.730;2024-01-30T09:25:15;8.63;;;7.27;;
5876;SDS011;2964;42.144;24.730;2024-01-30T09:27:41;7.30;;;6.67;;
5876;SDS011;2964;42.144;24.730;2024-01-30T09:30:08;9.73;;;7.33;;
5876;SDS011;2964;42.144;24.730;2024-01-30T09:32:37;7.90;;;7.10;;
5876;SDS011;2964;42.144;24.730;2024-01-30T09:35:03;10.63;;;7.20;;
5876;SDS011;2964;42.144;24.730;2024-01-30T09:37:31;8.27;;;7.47;;
5876;SDS011;2964;42.144;24.730;2024-01-30T09:39:57;9.00;;;7.10;;
5876;SDS011;2964;42.144;24.730;2024-01-30T09:42:26;7.93;;;7.13;;
5876;SDS011;2964;42.144;24.730;2024-01-30T09:44:58;8.57;;;7.60;;
5876;SDS011;2964;42.144;24.730;2024-01-30T09:47:24;16.37;;;8.43;;
5876;SDS011;2964;42.144;24.730;2024-01-30T09:49:53;8.77;;;7.87;;
5876;SDS011;2964;42.144;24.730;2024-01-30T09:52:22;9.30;;;8.40;;
5876;SDS011;2964;42.144;24.730;2024-01-30T09:54:49;10.50;;;8.60;;
5876;SDS011;2964;42.144;24.730;2024-01-30T09:57:18;9.17;;;8.27;;
5876;SDS011;2964;42.144;24.730;2024-01-30T09:59:46;12.20;;;8.70;;
5876;SDS011;2964;42.144;24.730;2024-01-30T10:02:12;9.60;;;8.70;;
5876;SDS011;2964;42.144;24.730;2024-01-30T10:04:40;10.13;;;8.17;;
5876;SDS011;2964;42.144;24.730;2024-01-30T10:07:08;16.87;;;8.33;;
5876;SDS011;2964;42.144;24.730;2024-01-30T10:09:37;11.33;;;8.20;;
5876;SDS011;2964;42.144;24.730;2024-01-30T10:12:04;8.30;;;7.27;;
5876;SDS011;2964;42.144;24.730;2024-01-30T10:14:32;9.23;;;7.60;;
5876;SDS011;2964;42.144;24.730;2024-01-30T10:17:00;8.47;;;7.67;;
5876;SDS011;2964;42.144;24.730;2024-01-30T10:19:27;8.37;;;6.87;;
5876;SDS011;2964;42.144;24.730;2024-01-30T10:21:54;11.77;;;7.63;;
5876;SDS011;2964;42.144;24.730;2024-01-30T10:24:24;16.37;;;8.23;;
5876;SDS011;2964;42.144;24.730;2024-01-30T10:26:52;23.10;;;8.63;;
5876;SDS011;2964;42.144;24.730;2024-01-30T10:29:19;6.60;;;5.90;;
5876;SDS011;2964;42.144;24.730;2024-01-30T10:31:56;26.90;;;7.90;;
5876;SDS011;2964;42.144;24.730;2024-01-30T10:34:24;10.27;;;7.77;;
5876;SDS011;2964;42.144;24.730;2024-01-30T10:36:51;9.60;;;6.40;;
5876;SDS011;2964;42.144;24.730;2024-01-30T10:39:28;10.17;;;6.90;;
5876;SDS011;2964;42.144;24.730;2024-01-30T10:41:56;9.20;;;6.23;;
5876;SDS011;2964;42.144;24.730;2024-01-30T10:44:29;6.33;;;5.73;;
5876;SDS011;2964;42.144;24.730;2024-01-30T10:47:03;6.10;;;4.77;;
5876;SDS011;2964;42.144;24.730;2024-01-30T10:49:36;7.57;;;5.77;;
5876;SDS011;2964;42.144;24.730;2024-01-30T10:52:03;6.40;;;5.53;;
5876;SDS011;2964;42.144;24.730;2024-01-30T10:54:32;5.90;;;5.50;;
5876;SDS011;2964;42.144;24.730;2024-01-30T10:57:01;26.23;;;7.03;;
5876;SDS011;2964;42.144;24.730;2024-01-30T10:59:30;7.40;;;6.60;;
5876;SDS011;2964;42.144;24.730;2024-01-30T11:01:59;5.33;;;4.93;;
5876;SDS011;2964;42.144;24.730;2024-01-30T11:04:27;6.20;;;5.80;;
5876;SDS011;2964;42.144;24.730;2024-01-30T11:07:02;5.83;;;5.43;;
5876;SDS011;2964;42.144;24.730;2024-01-30T11:09:29;7.87;;;7.13;;
5876;SDS011;2964;42.144;24.730;2024-01-30T11:11:58;5.47;;;5.13;;
5876;SDS011;2964;42.144;24.730;2024-01-30T11:14:26;5.87;;;5.37;;
5876;SDS011;2964;42.144;24.730;2024-01-30T11:16:56;6.33;;;5.90;;
5876;SDS011;2964;42.144;24.730;2024-01-30T11:19:24;8.73;;;6.60;;
5876;SDS011;2964;42.144;24.730;2024-01-30T11:21:52;6.90;;;6.40;;
5876;SDS011;2964;42.144;24.730;2024-01-30T11:24:19;6.40;;;5.50;;
5876;SDS011;2964;42.144;24.730;2024-01-30T11:26:48;4.83;;;4.27;;
5876;SDS011;2964;42.144;24.730;2024-01-30T11:29:17;5.60;;;5.10;;
5876;SDS011;2964;42.144;24.730;2024-01-30T11:31:53;6.10;;;5.60;;
5876;SDS011;2964;42.144;24.730;2024-01-30T11:34:21;5.47;;;5.17;;
5876;SDS011;2964;42.144;24.730;2024-01-30T11:36:48;8.70;;;7.20;;
5876;SDS011;2964;42.144;24.730;2024-01-30T11:39:20;8.73;;;6.63;;
5876;SDS011;2964;42.144;24.730;2024-01-30T11:41:47;7.03;;;6.43;;
5876;SDS011;2964;42.144;24.730;2024-01-30T11:44:18;9.53;;;5.47;;
5876;SDS011;2964;42.144;24.730;2024-01-30T11:46:46;5.27;;;4.97;;
5876;SDS011;2964;42.144;24.730;2024-01-30T11:49:14;5.20;;;4.90;;
5876;SDS011;2964;42.144;24.730;2024-01-30T11:51:40;6.57;;;6.03;;
5876;SDS011;2964;42.144;24.730;2024-01-30T11:54:08;6.13;;;5.17;;
5876;SDS011;2964;42.144;24.730;2024-01-30T11:56:34;6.43;;;5.60;;
5876;SDS011;2964;42.144;24.730;2024-01-30T11:59:03;5.80;;;4.63;;
5876;SDS011;2964;42.144;24.730;2024-01-30T12:01:31;4.97;;;4.53;;
5876;SDS011;2964;42.144;24.730;2024-01-30T12:03:59;5.40;;;5.10;;
5876;SDS011;2964;42.144;24.730;2024-01-30T12:06:26;6.67;;;5.90;;
5876;SDS011;2964;42.144;24.730;2024-01-30T12:08:56;5.43;;;5.07;;
5876;SDS011;2964;42.144;24.730;2024-01-30T12:11:24;5.03;;;4.73;;
5876;SDS011;2964;42.144;24.730;2024-01-30T12:13:52;5.33;;;5.03;;
5876;SDS011;2964;42.144;24.730;2024-01-30T12:16:19;6.17;;;5.67;;
5876;SDS011;2964;42.144;24.730;2024-01-30T12:18:48;5.37;;;4.90;;
5876;SDS011;2964;42.144;24.730;2024-01-30T12:21:16;5.07;;;4.53;;
5876;SDS011;2964;42.144;24.730;2024-01-30T12:23:43;7.17;;;6.17;;
5876;SDS011;2964;42.144;24.730;2024-01-30T12:26:11;5.40;;;5.10;;
5876;SDS011;2964;42.144;24.730;2024-01-30T12:28:47;5.53;;;5.23;;
5876;SDS011;2964;42.144;24.730;2024-01-30T12:31:14;4.80;;;4.50;;
5876;SDS011;2964;42.144;24.730;2024-01-30T12:33:41;5.03;;;4.70;;
5876;SDS011;2964;42.144;24.730;2024-01-30T12:36:09;5.70;;;5.30;;
5876;SDS011;2964;42.144;24.730;2024-01-30T12:38:37;5.83;;;5.43;;
5876;SDS011;2964;42.144;24.730;2024-01-30T12:41:04;5.63;;;5.30;;
5876;SDS011;2964;42.144;24.730;2024-01-30T12:43:33;6.07;;;5.67;;
5876;SDS011;2964;42.144;24.730;2024-01-30T12:46:00;6.47;;;5.93;;
5876;SDS011;2964;42.144;24.730;2024-01-30T12:48:27;6.53;;;6.03;;
5876;SDS011;2964;42.144;24.730;2024-01-30T12:50:55;5.37;;;5.07;;
5876;SDS011;2964;42.144;24.730;2024-01-30T12:53:24;5.87;;;5.43;;
5876;SDS011;2964;42.144;24.730;2024-01-30T12:55:50;5.73;;;5.43;;
5876;SDS011;2964;42.144;24.730;2024-01-30T12:58:19;5.67;;;5.37;;
5876;SDS011;2964;42.144;24.730;2024-01-30T13:00:46;6.07;;;5.67;;
5876;SDS011;2964;42.144;24.730;2024-01-30T13:03:12;4.87;;;4.30;;
5876;SDS011;2964;42.144;24.730;2024-01-30T13:05:39;5.27;;;4.87;;
5876;SDS011;2964;42.144;24.730;2024-01-30T13:08:06;7.03;;;5.47;;
5876;SDS011;2964;42.144;24.730;2024-01-30T13:10:34;5.67;;;5.27;;
5876;SDS011;2964;42.144;24.730;2024-01-30T13:13:01;6.00;;;5.40;;
5876;SDS011;2964;42.144;24.730;2024-01-30T13:15:27;5.63;;;5.27;;
5876;SDS011;2964;42.144;24.730;2024-01-30T13:17:54;5.53;;;5.00;;
5876;SDS011;2964;42.144;24.730;2024-01-30T13:20:21;6.67;;;5.60;;
5876;SDS011;2964;42.144;24.730;2024-01-30T13:22:48;9.13;;;6.43;;
5876;SDS011;2964;42.144;24.730;2024-01-30T13:25:15;7.40;;;6.60;;
5876;SDS011;2964;42.144;24.730;2024-01-30T13:27:43;6.77;;;6.17;;
5876;SDS011;2964;42.144;24.730;2024-01-30T13:30:10;6.63;;;6.23;;
5876;SDS011;2964;42.144;24.730;2024-01-30T13:32:38;8.90;;;7.33;;
5876;SDS011;2964;42.144;24.730;2024-01-30T13:35:06;7.60;;;6.03;;
5876;SDS011;2964;42.144;24.730;2024-01-30T13:37:34;8.37;;;7.57;;
5876;SDS011;2964;42.144;24.730;2024-01-30T13:40:01;12.37;;;8.07;;
5876;SDS011;2964;42.144;24.730;2024-01-30T13:42:28;8.70;;;7.97;;
5876;SDS011;2964;42.144;24.730;2024-01-30T13:44:56;7.57;;;6.03;;
5876;SDS011;2964;42.144;24.730;2024-01-30T13:47:22;5.90;;;5.50;;
5876;SDS011;2964;42.144;24.730;2024-01-30T13:49:50;6.40;;;5.90;;
5876;SDS011;2964;42.144;24.730;2024-01-30T13:52:17;7.07;;;6.13;;
5876;SDS011;2964;42.144;24.730;2024-01-30T13:54:44;6.23;;;5.73;;
5876;SDS011;2964;42.144;24.730;2024-01-30T13:57:11;6.30;;;5.90;;
5876;SDS011;2964;42.144;24.730;2024-01-30T13:59:38;6.90;;;5.30;;
5876;SDS011;2964;42.144;24.730;2024-01-30T14:02:06;13.43;;;6.13;;
5876;SDS011;2964;42.144;24.730;2024-01-30T14:04:35;6.37;;;5.87;;
5876;SDS011;2964;42.144;24.730;2024-01-30T14:07:02;6.60;;;6.10;;
5876;SDS011;2964;42.144;24.730;2024-01-30T14:09:29;6.63;;;6.23;;
5876;SDS011;2964;42.144;24.730;2024-01-30T14:11:57;6.63;;;6.13;;
5876;SDS011;2964;42.144;24.730;2024-01-30T14:14:24;6.40;;;5.80;;
5876;SDS011;2964;42.144;24.730;2024-01-30T14:16:50;6.00;;;5.50;;
5876;SDS011;2964;42.144;24.730;2024-01-30T14:19:18;5.83;;;5.53;;
5876;SDS011;2964;42.144;24.730;2024-01-30T14:21:45;5.93;;;5.33;;
5876;SDS011;2964;42.144;24.730;2024-01-30T14:24:12;6.23;;;5.73;;
5876;SDS011;2964;42.144;24.730;2024-01-30T14:26:38;7.00;;;6.40;;
5876;SDS011;2964;42.144;24.730;2024-01-30T14:29:05;6.40;;;5.80;;
5876;SDS011;2964;42.144;24.730;2024-01-30T14:31:32;6.77;;;6.03;;
5876;SDS011;2964;42.144;24.730;2024-01-30T14:33:58;6.00;;;5.60;;
5876;SDS011;2964;42.144;24.730;2024-01-30T14:36:27;8.13;;;6.20;;
5876;SDS011;2964;42.144;24.730;2024-01-30T14:38:54;10.07;;;5.73;;
5876;SDS011;2964;42.144;24.730;2024-01-30T14:41:20;7.67;;;6.97;;
5876;SDS011;2964;42.144;24.730;2024-01-30T14:43:47;6.13;;;5.73;;
5876;SDS011;2964;42.144;24.730;2024-01-30T14:46:14;7.13;;;6.63;;
5876;SDS011;2964;42.144;24.730;2024-01-30T14:48:41;6.20;;;5.60;;
5876;SDS011;2964;42.144;24.730;2024-01-30T14:51:08;6.77;;;6.27;;
5876;SDS011;2964;42.144;24.730;2024-01-30T14:53:36;7.77;;;6.93;;